Time;durP1;ratioP1;P1;durP2;ratioP2;P2;SDS_P1;SDS_P2;PMS_P1;PMS_P2;Temp;Humidity;BMP_temperature;BMP_pressure;BME280_temperature;BME280_humidity;BME280_pressure;Samples;Min_cycle;Max_cycle;Signal;HPM_P1;HPM_P2
2022/04/05 00:00:57;;;;;;;10.43;3.05;;;7.30;99.90;;;;;;5057021;28;20073;-73
2022/04/05 00:03:23;;;;;;;11.35;3.92;;;7.30;99.90;;;;;;5046236;28;20068;-71
2022/04/05 00:05:49;;;;;;;7.68;3.00;;;7.30;99.90;;;;;;5068432;28;20041;-71
2022/04/05 00:08:16;;;;;;;11.32;3.47;;;7.30;99.90;;;;;;5055535;28;20752;-71
2022/04/05 00:10:43;;;;;;;6.93;2.83;;;7.30;99.90;;;;;;5063238;28;20509;-72
2022/04/05 00:13:09;;;;;;;6.05;2.47;;;7.30;99.90;;;;;;5063173;28;20105;-72
2022/04/05 00:15:36;;;;;;;10.40;2.17;;;7.30;99.90;;;;;;5059941;28;20092;-72
2022/04/05 00:18:02;;;;;;;8.55;2.50;;;7.20;99.90;;;;;;5083106;28;20044;-68
2022/04/05 00:20:28;;;;;;;7.90;2.78;;;7.30;99.90;;;;;;5060885;28;20498;-68
2022/04/05 00:22:58;;;;;;;15.05;2.78;;;7.20;99.90;;;;;;5066189;28;20040;-69
2022/04/05 00:25:24;;;;;;;9.32;2.45;;;7.20;99.90;;;;;;5061417;28;20064;-69
2022/04/05 00:27:50;;;;;;;8.18;2.05;;;7.20;99.90;;;;;;5063099;28;20727;-68
2022/04/05 00:30:16;;;;;;;8.05;2.15;;;7.20;99.90;;;;;;5040511;28;20063;-69
2022/04/05 00:32:42;;;;;;;11.52;3.05;;;7.20;99.90;;;;;;5037165;28;20105;-69
2022/04/05 00:35:09;;;;;;;7.95;2.40;;;7.10;99.90;;;;;;5050301;28;20106;-68
2022/04/05 00:37:36;;;;;;;8.05;2.10;;;7.10;99.90;;;;;;5079635;28;20055;-68
2022/04/05 00:40:04;;;;;;;7.82;2.30;;;7.10;99.90;;;;;;5078712;28;20739;-67
2022/04/05 00:42:30;;;;;;;9.07;2.17;;;7.10;99.90;;;;;;5082763;28;20080;-67
2022/04/05 00:44:56;;;;;;;7.13;1.88;;;7.10;99.90;;;;;;5069577;28;20051;-69
2022/04/05 00:47:23;;;;;;;7.45;2.10;;;7.10;99.90;;;;;;5067858;28;20055;-68
2022/04/05 00:49:52;;;;;;;7.90;2.08;;;7.10;99.90;;;;;;5066006;28;20475;-69
2022/04/05 00:52:19;;;;;;;5.22;1.88;;;7.00;99.90;;;;;;5050840;28;20071;-68
2022/04/05 00:54:48;;;;;;;6.78;2.15;;;7.00;99.90;;;;;;5078070;28;20041;-68
2022/04/05 00:57:16;;;;;;;7.55;1.70;;;7.00;99.90;;;;;;5062173;28;20072;-68
2022/04/05 00:59:47;;;;;;;5.20;1.33;;;7.00;99.90;;;;;;5055190;28;20048;-68
2022/04/05 01:02:16;;;;;;;6.57;1.70;;;7.00;99.90;;;;;;5061268;28;20048;-68
2022/04/05 01:04:43;;;;;;;8.45;1.63;;;7.00;99.90;;;;;;5064449;28;20063;-68
2022/04/05 01:07:13;;;;;;;8.02;1.83;;;7.00;99.90;;;;;;5061994;28;20041;-68
2022/04/05 01:09:40;;;;;;;7.88;1.70;;;6.90;99.90;;;;;;5082185;28;20028;-68
2022/04/05 01:12:10;;;;;;;5.55;1.60;;;6.90;99.90;;;;;;5081808;28;20064;-68
2022/04/05 01:14:37;;;;;;;8.35;1.80;;;6.90;99.90;;;;;;5074531;28;20067;-68
2022/04/05 01:17:07;;;;;;;6.72;1.50;;;6.90;99.90;;;;;;5045037;28;20057;-68
2022/04/05 01:19:34;;;;;;;5.97;1.80;;;6.90;99.90;;;;;;5068394;28;20106;-68
2022/04/05 01:22:00;;;;;;;9.00;2.40;;;6.90;99.90;;;;;;5068195;28;20099;-68
2022/04/05 01:24:27;;;;;;;8.38;1.88;;;6.80;99.90;;;;;;5062184;28;20067;-68
2022/04/05 01:26:56;;;;;;;6.57;1.65;;;6.90;99.90;;;;;;5048512;28;20044;-72
2022/04/05 01:29:27;;;;;;;7.40;1.80;;;6.90;99.90;;;;;;5076238;28;20558;-72
2022/04/05 01:32:03;;;;;;;8.23;1.70;;;6.80;99.90;;;;;;5063716;28;20055;-72
2022/04/05 01:34:31;;;;;;;8.40;2.40;;;6.80;99.90;;;;;;5071875;28;20041;-72
2022/04/05 01:36:59;;;;;;;7.82;2.30;;;6.80;99.90;;;;;;5025858;28;20052;-72
2022/04/05 01:39:27;;;;;;;7.43;2.10;;;6.80;99.90;;;;;;5077225;28;20051;-72
2022/04/05 01:42:01;;;;;;;8.60;2.10;;;6.80;99.90;;;;;;5064914;28;20079;-72
2022/04/05 01:44:29;;;;;;;5.50;1.55;;;6.80;99.90;;;;;;5081567;28;20109;-72
2022/04/05 01:47:02;;;;;;;8.75;2.17;;;6.80;99.90;;;;;;5081603;28;20048;-72
2022/04/05 01:49:28;;;;;;;8.70;1.98;;;6.80;99.90;;;;;;5078900;28;20044;-70
2022/04/05 01:51:54;;;;;;;8.27;2.20;;;6.80;99.90;;;;;;5063202;28;20040;-70
2022/04/05 01:54:19;;;;;;;7.68;2.38;;;6.80;99.90;;;;;;5063786;28;20147;-72
2022/04/05 01:56:47;;;;;;;8.48;2.00;;;6.80;99.90;;;;;;5066672;28;20177;-71
2022/04/05 01:59:16;;;;;;;6.00;2.00;;;6.90;99.90;;;;;;5094071;28;20043;-72
2022/04/05 02:01:42;;;;;;;8.02;2.55;;;6.90;99.90;;;;;;5047623;28;20040;-72
2022/04/05 02:04:12;;;;;;;7.60;2.20;;;6.80;99.90;;;;;;5062866;28;20112;-72
2022/04/05 02:06:39;;;;;;;8.50;1.88;;;6.80;99.90;;;;;;5063179;28;20573;-73
2022/04/05 02:09:06;;;;;;;7.70;1.92;;;6.80;99.90;;;;;;5064528;28;20720;-72
2022/04/05 02:11:32;;;;;;;7.53;2.13;;;6.80;99.90;;;;;;5064554;28;20072;-68
2022/04/05 02:13:58;;;;;;;7.72;2.50;;;6.80;99.90;;;;;;5064320;28;20059;-69
2022/04/05 02:16:25;;;;;;;8.57;2.30;;;6.80;99.90;;;;;;5047993;28;20040;-69
2022/04/05 02:18:51;;;;;;;9.70;2.63;;;6.90;99.90;;;;;;5048998;28;20040;-68
2022/04/05 02:21:16;;;;;;;8.15;2.17;;;6.80;99.90;;;;;;5065050;28;20556;-69
2022/04/05 02:23:42;;;;;;;9.63;2.28;;;6.80;99.90;;;;;;5080112;28;20058;-68
2022/04/05 02:26:08;;;;;;;10.63;2.88;;;6.90;99.90;;;;;;5061553;28;20031;-69
2022/04/05 02:28:34;;;;;;;8.85;2.75;;;6.80;99.90;;;;;;5058324;28;20245;-68
2022/04/05 02:31:00;;;;;;;9.13;2.78;;;6.80;99.90;;;;;;5060572;28;20054;-68
2022/04/05 02:33:26;;;;;;;11.73;3.25;;;6.80;99.90;;;;;;5078359;28;20036;-68
2022/04/05 02:35:52;;;;;;;6.65;2.88;;;6.80;99.90;;;;;;5061638;28;20055;-69
2022/04/05 02:38:19;;;;;;;10.15;3.03;;;6.80;99.90;;;;;;5043362;28;20052;-72
2022/04/05 02:40:45;;;;;;;8.77;3.13;;;6.80;99.90;;;;;;5109925;27;20048;-71
2022/04/05 02:43:11;;;;;;;11.35;2.92;;;6.80;99.90;;;;;;5078206;28;20131;-69
2022/04/05 02:45:37;;;;;;;10.05;3.17;;;6.80;99.90;;;;;;5044307;28;20441;-69
2022/04/05 02:48:03;;;;;;;10.25;3.70;;;6.80;99.90;;;;;;5080216;28;20100;-69
2022/04/05 02:50:29;;;;;;;8.57;2.72;;;6.80;99.90;;;;;;5080750;28;20043;-69
2022/04/05 02:52:54;;;;;;;9.07;3.40;;;6.80;99.90;;;;;;5079696;28;20256;-69
2022/04/05 02:55:21;;;;;;;7.25;2.80;;;6.80;99.90;;;;;;5080335;28;20071;-69
2022/04/05 02:57:46;;;;;;;12.15;3.40;;;6.80;99.90;;;;;;5056477;28;20063;-69
2022/04/05 03:00:15;;;;;;;12.95;3.05;;;6.80;99.90;;;;;;5061511;28;20067;-68
2022/04/05 03:02:42;;;;;;;9.15;3.35;;;6.90;99.90;;;;;;5062618;28;20335;-69
2022/04/05 03:05:09;;;;;;;8.75;3.28;;;6.90;99.90;;;;;;5080226;28;20532;-69
2022/04/05 03:07:36;;;;;;;13.88;3.72;;;6.90;99.90;;;;;;5063309;28;20643;-69
2022/04/05 03:10:06;;;;;;;10.50;3.28;;;6.90;99.90;;;;;;5079888;28;20075;-69
2022/04/05 03:12:35;;;;;;;10.80;3.63;;;6.90;99.90;;;;;;5080457;28;20101;-69
2022/04/05 03:15:01;;;;;;;8.75;3.15;;;6.90;99.90;;;;;;5046566;28;20048;-70
2022/04/05 03:17:27;;;;;;;12.13;3.45;;;6.90;99.90;;;;;;5067181;28;20045;-69
2022/04/05 03:19:53;;;;;;;8.93;3.60;;;6.90;99.90;;;;;;5064325;28;20074;-69
2022/04/05 03:22:21;;;;;;;10.60;4.15;;;6.90;99.90;;;;;;5062563;28;20036;-69
2022/04/05 03:24:47;;;;;;;9.43;3.63;;;6.90;99.90;;;;;;5064658;28;20138;-68
2022/04/05 03:27:13;;;;;;;10.40;3.78;;;6.80;99.90;;;;;;5078525;28;20075;-68
2022/04/05 03:29:39;;;;;;;10.55;3.90;;;6.80;99.90;;;;;;5080617;28;20044;-69
2022/04/05 03:32:05;;;;;;;11.07;3.75;;;6.90;99.90;;;;;;5063135;28;20197;-68
2022/04/05 03:34:31;;;;;;;13.00;4.00;;;6.90;99.90;;;;;;5046580;28;20048;-68
2022/04/05 03:36:57;;;;;;;12.75;4.60;;;6.90;99.90;;;;;;5080399;28;20043;-68
2022/04/05 03:39:23;;;;;;;10.68;4.43;;;6.90;99.90;;;;;;5080869;28;20534;-68
2022/04/05 03:41:49;;;;;;;11.48;4.10;;;6.90;99.90;;;;;;5081591;28;20040;-68
2022/04/05 03:44:16;;;;;;;17.05;4.85;;;6.90;99.90;;;;;;5080843;28;20686;-69
2022/04/05 03:46:41;;;;;;;11.52;4.25;;;6.90;99.90;;;;;;5081316;28;20044;-69
2022/04/05 03:49:07;;;;;;;12.00;4.55;;;6.90;99.90;;;;;;5064440;28;20040;-68
2022/04/05 03:51:33;;;;;;;11.15;4.35;;;6.90;99.90;;;;;;5065213;28;20040;-68
2022/04/05 03:53:59;;;;;;;13.88;4.57;;;6.90;99.90;;;;;;5079643;28;20040;-69
2022/04/05 03:56:25;;;;;;;16.40;4.38;;;7.00;99.90;;;;;;5063811;28;20122;-69
2022/04/05 03:58:53;;;;;;;13.52;4.63;;;6.90;99.90;;;;;;5064389;28;20051;-69
2022/04/05 04:01:19;;;;;;;9.55;4.05;;;7.00;99.90;;;;;;5077983;28;20051;-69
2022/04/05 04:03:44;;;;;;;12.15;4.13;;;7.00;99.90;;;;;;5063439;28;20051;-69
2022/04/05 04:06:10;;;;;;;10.80;3.95;;;7.00;99.90;;;;;;5081953;28;20044;-68
2022/04/05 04:08:36;;;;;;;15.70;4.57;;;7.00;99.90;;;;;;5082406;28;20074;-69
2022/04/05 04:11:02;;;;;;;12.25;3.92;;;7.00;99.90;;;;;;5065373;28;20044;-68
2022/04/05 04:13:28;;;;;;;12.85;4.57;;;7.00;99.90;;;;;;5081642;28;20447;-69
2022/04/05 04:15:56;;;;;;;13.60;4.68;;;7.00;99.90;;;;;;5082138;28;20083;-68
2022/04/05 04:18:22;;;;;;;10.88;4.32;;;6.90;99.90;;;;;;5083902;28;20118;-69
2022/04/05 04:20:48;;;;;;;10.82;4.20;;;7.00;99.90;;;;;;5085775;28;20612;-69
2022/04/05 04:23:15;;;;;;;16.63;4.97;;;6.90;99.90;;;;;;5084247;28;20036;-71
2022/04/05 04:25:41;;;;;;;15.27;4.90;;;6.90;99.90;;;;;;5084137;28;20249;-72
2022/04/05 04:28:09;;;;;;;12.38;4.25;;;6.90;99.90;;;;;;5085854;28;20048;-72
2022/04/05 04:30:36;;;;;;;13.07;4.35;;;6.90;99.90;;;;;;5085450;28;20122;-71
2022/04/05 04:33:03;;;;;;;14.25;5.07;;;7.00;99.90;;;;;;5067699;28;20059;-72
2022/04/05 04:35:29;;;;;;;12.43;4.40;;;6.90;99.90;;;;;;5068493;28;20051;-72
2022/04/05 04:37:58;;;;;;;12.30;4.80;;;6.90;99.90;;;;;;5047732;28;20048;-70
2022/04/05 04:40:25;;;;;;;14.90;5.13;;;6.90;99.90;;;;;;5048680;28;20052;-70
2022/04/05 04:42:51;;;;;;;14.50;5.32;;;6.90;99.90;;;;;;5048571;28;20056;-70
2022/04/05 04:45:17;;;;;;;15.95;5.53;;;6.90;99.90;;;;;;5064747;28;20101;-71
2022/04/05 04:47:44;;;;;;;14.40;5.10;;;6.90;99.90;;;;;;5048570;28;20041;-71
2022/04/05 04:50:11;;;;;;;18.05;5.53;;;6.90;99.90;;;;;;5047642;28;20041;-70
2022/04/05 04:52:37;;;;;;;13.38;5.40;;;6.90;99.90;;;;;;5050228;28;20040;-71
2022/04/05 04:55:07;;;;;;;16.10;5.03;;;6.90;99.90;;;;;;5067214;28;20090;-71
2022/04/05 04:57:33;;;;;;;11.68;5.22;;;6.90;99.90;;;;;;5084927;28;20162;-71
2022/04/05 04:59:59;;;;;;;13.85;5.22;;;6.90;99.90;;;;;;5084765;28;20048;-71
2022/04/05 05:02:26;;;;;;;10.60;4.50;;;6.90;99.90;;;;;;5067000;28;20046;-71
2022/04/05 05:04:52;;;;;;;15.10;4.68;;;6.90;99.90;;;;;;5083681;28;20562;-71
2022/04/05 05:07:18;;;;;;;11.93;5.15;;;6.90;99.90;;;;;;5065816;28;20036;-68
2022/04/05 05:09:44;;;;;;;11.38;4.10;;;6.90;99.90;;;;;;5060851;28;20050;-68
2022/04/05 05:12:11;;;;;;;12.23;4.97;;;6.90;99.90;;;;;;5077773;28;20058;-68
2022/04/05 05:14:37;;;;;;;14.35;4.72;;;6.90;99.90;;;;;;5062660;28;20040;-68
2022/04/05 05:17:04;;;;;;;13.25;4.82;;;6.90;99.90;;;;;;5078587;28;20459;-68
2022/04/05 05:19:30;;;;;;;10.73;4.63;;;6.90;99.90;;;;;;5074488;28;20405;-68
2022/04/05 05:21:58;;;;;;;10.48;4.40;;;6.90;99.90;;;;;;5062771;28;20048;-68
2022/04/05 05:24:24;;;;;;;11.43;4.63;;;6.90;99.90;;;;;;5074082;28;20044;-68
2022/04/05 05:26:50;;;;;;;12.85;4.70;;;6.90;99.90;;;;;;5046320;28;20101;-68
2022/04/05 05:29:16;;;;;;;11.73;4.38;;;6.80;99.90;;;;;;5061635;28;20514;-68
2022/04/05 05:31:42;;;;;;;11.35;4.15;;;6.90;99.90;;;;;;5078958;28;20139;-68
2022/04/05 05:34:08;;;;;;;12.98;3.88;;;6.90;99.90;;;;;;5071026;28;20542;-68
2022/04/05 05:36:34;;;;;;;12.60;4.10;;;6.90;99.90;;;;;;5076068;28;20063;-69
2022/04/05 05:39:00;;;;;;;11.57;4.38;;;6.90;99.90;;;;;;5075430;28;20044;-72
2022/04/05 05:41:26;;;;;;;10.65;4.18;;;6.90;99.90;;;;;;5057926;28;20491;-70
2022/04/05 05:43:52;;;;;;;9.73;4.10;;;6.80;99.90;;;;;;5074379;28;20040;-69
2022/04/05 05:46:18;;;;;;;9.40;4.20;;;6.90;99.90;;;;;;5077898;28;20058;-69
2022/04/05 05:48:44;;;;;;;12.10;4.20;;;6.90;99.90;;;;;;5044900;28;20040;-69
2022/04/05 05:51:10;;;;;;;11.00;4.30;;;6.90;99.90;;;;;;5059914;28;20054;-69
2022/04/05 05:53:39;;;;;;;12.05;4.18;;;6.90;99.90;;;;;;5076031;28;20047;-69
2022/04/05 05:56:05;;;;;;;9.93;3.90;;;6.90;99.90;;;;;;5045336;28;20044;-70
2022/04/05 05:58:30;;;;;;;8.80;3.65;;;7.00;99.90;;;;;;5061128;28;20077;-69
2022/04/05 06:00:56;;;;;;;11.70;3.55;;;7.00;99.90;;;;;;5064161;28;20048;-70
2022/04/05 06:03:22;;;;;;;9.88;3.55;;;7.00;99.90;;;;;;5079896;28;20163;-69
2022/04/05 06:05:48;;;;;;;11.68;3.55;;;7.00;99.90;;;;;;5064698;28;20040;-69
2022/04/05 06:08:14;;;;;;;10.68;3.50;;;7.20;99.90;;;;;;5080507;28;20054;-70
2022/04/05 06:10:40;;;;;;;9.07;3.55;;;7.00;99.90;;;;;;5046492;28;20649;-70
2022/04/05 06:13:06;;;;;;;7.30;2.83;;;7.00;99.90;;;;;;5096957;28;20064;-69
2022/04/05 06:15:32;;;;;;;8.82;2.80;;;7.10;99.90;;;;;;5077914;28;20141;-69
2022/04/05 06:17:58;;;;;;;9.50;3.10;;;7.10;99.90;;;;;;5060812;28;20052;-69
2022/04/05 06:20:25;;;;;;;10.60;3.10;;;7.10;99.90;;;;;;5060571;28;20048;-69
2022/04/05 06:22:57;;;;;;;9.45;2.72;;;7.00;99.90;;;;;;5060556;28;20067;-69
2022/04/05 06:25:29;;;;;;;12.55;3.55;;;7.10;99.90;;;;;;5072935;28;20115;-69
2022/04/05 06:27:56;;;;;;;8.75;3.38;;;7.10;99.90;;;;;;5076909;28;20137;-70
2022/04/05 06:30:22;;;;;;;8.77;3.03;;;7.00;99.90;;;;;;5078683;28;20473;-69
2022/04/05 06:32:48;;;;;;;7.75;3.00;;;7.00;99.90;;;;;;5054167;28;20063;-68
2022/04/05 06:35:14;;;;;;;9.63;2.60;;;7.10;99.90;;;;;;5067089;28;20506;-68
2022/04/05 06:37:44;;;;;;;7.78;2.42;;;7.10;99.90;;;;;;5047315;28;20059;-68
2022/04/05 06:40:11;;;;;;;7.37;2.50;;;7.10;99.90;;;;;;5081278;28;20097;-68
2022/04/05 06:42:42;;;;;;;7.05;2.33;;;7.20;99.90;;;;;;5082037;28;20411;-69
2022/04/05 06:45:19;;;;;;;7.57;2.60;;;7.20;99.90;;;;;;5075356;28;20495;-69
2022/04/05 06:47:45;;;;;;;9.38;2.67;;;7.20;99.90;;;;;;5079540;28;20517;-69
2022/04/05 06:50:14;;;;;;;8.90;2.70;;;7.20;99.90;;;;;;5077315;28;20267;-69
2022/04/05 06:52:41;;;;;;;9.90;2.85;;;7.30;99.90;;;;;;5080780;28;20043;-69
2022/04/05 06:55:08;;;;;;;7.43;2.50;;;7.30;99.90;;;;;;5080765;28;20047;-69
2022/04/05 06:57:34;;;;;;;8.88;3.10;;;7.30;99.90;;;;;;5047080;28;20100;-69
2022/04/05 07:00:01;;;;;;;6.43;2.10;;;7.40;99.90;;;;;;5062287;28;20048;-69
2022/04/05 07:02:27;;;;;;;7.85;2.30;;;7.40;99.90;;;;;;5062776;28;20109;-69
2022/04/05 07:04:53;;;;;;;6.28;2.50;;;7.50;99.90;;;;;;5062336;28;21010;-69
2022/04/05 07:07:19;;;;;;;7.18;2.30;;;7.50;99.90;;;;;;5046375;28;20536;-69
2022/04/05 07:09:45;;;;;;;6.72;2.58;;;7.50;99.90;;;;;;5060733;28;20100;-69
2022/04/05 07:12:11;;;;;;;7.60;2.30;;;7.50;99.90;;;;;;5078903;28;20047;-69
2022/04/05 07:14:36;;;;;;;6.30;1.80;;;7.60;99.90;;;;;;5080319;28;20032;-69
2022/04/05 07:17:03;;;;;;;7.75;2.00;;;7.50;99.90;;;;;;5058269;28;20133;-69
2022/04/05 07:19:28;;;;;;;7.93;1.83;;;7.50;99.90;;;;;;5055487;28;20044;-69
2022/04/05 07:21:54;;;;;;;9.45;2.20;;;7.50;99.90;;;;;;5063193;28;20414;-69
2022/04/05 07:24:21;;;;;;;6.43;1.83;;;7.60;99.90;;;;;;5080013;28;20043;-70
2022/04/05 07:26:47;;;;;;;5.50;1.65;;;7.60;99.90;;;;;;5063028;28;20427;-69
2022/04/05 07:29:12;;;;;;;9.25;2.20;;;7.60;99.90;;;;;;5079725;28;20036;-69
2022/04/05 07:31:38;;;;;;;6.75;2.00;;;7.60;99.90;;;;;;5080162;28;20552;-69
2022/04/05 07:34:04;;;;;;;5.60;1.98;;;7.70;99.90;;;;;;5045661;28;20403;-69
2022/04/05 07:36:31;;;;;;;5.43;1.88;;;7.70;99.90;;;;;;5045942;28;20068;-69
2022/04/05 07:38:57;;;;;;;5.35;1.90;;;7.70;99.90;;;;;;5075492;28;20502;-68
2022/04/05 07:41:23;;;;;;;6.75;1.63;;;7.80;99.90;;;;;;5077898;28;20046;-69
2022/04/05 07:43:49;;;;;;;5.10;1.35;;;7.90;99.90;;;;;;5063388;28;20070;-68
2022/04/05 07:46:15;;;;;;;5.80;2.03;;;8.00;99.90;;;;;;5079964;28;20040;-69
2022/04/05 07:48:42;;;;;;;4.95;1.63;;;8.00;99.90;;;;;;5078632;28;20066;-70
2022/04/05 07:51:08;;;;;;;4.22;1.10;;;8.00;99.90;;;;;;5079279;28;20049;-69
2022/04/05 07:53:34;;;;;;;5.25;1.30;;;7.90;99.90;;;;;;5082901;28;20432;-69
2022/04/05 07:55:59;;;;;;;5.70;1.60;;;7.90;99.90;;;;;;5083670;28;20048;-70
2022/04/05 07:58:28;;;;;;;5.45;1.42;;;7.90;99.90;;;;;;5067281;28;20113;-69
2022/04/05 08:00:54;;;;;;;7.72;1.95;;;7.90;99.90;;;;;;5064449;28;20419;-70
2022/04/05 08:03:21;;;;;;;4.00;1.50;;;7.80;99.90;;;;;;5080472;28;20055;-69
2022/04/05 08:05:47;;;;;;;3.60;1.50;;;7.80;99.90;;;;;;5084396;28;20040;-71
2022/04/05 08:08:14;;;;;;;4.57;1.60;;;7.90;99.90;;;;;;5062390;28;20094;-70
2022/04/05 08:10:42;;;;;;;5.43;1.58;;;7.90;99.90;;;;;;5083625;28;20454;-69
2022/04/05 08:13:07;;;;;;;4.60;1.92;;;7.90;99.90;;;;;;5083492;28;20044;-70
2022/04/05 08:15:34;;;;;;;4.35;1.65;;;7.90;99.90;;;;;;5065662;28;20095;-70
2022/04/05 08:18:00;;;;;;;6.22;1.70;;;7.90;99.90;;;;;;5075452;28;20044;-70
2022/04/05 08:20:26;;;;;;;3.72;1.50;;;8.00;99.90;;;;;;5077657;28;20055;-70
2022/04/05 08:22:52;;;;;;;6.03;2.10;;;8.00;99.90;;;;;;5080015;28;20032;-70
2022/04/05 08:25:18;;;;;;;4.28;1.35;;;8.10;99.90;;;;;;5044511;28;20185;-70
2022/04/05 08:27:46;;;;;;;7.53;2.00;;;8.10;99.90;;;;;;5080186;28;20062;-70
2022/04/05 08:30:15;;;;;;;4.72;1.67;;;8.10;99.90;;;;;;5082287;28;20052;-69
2022/04/05 08:32:42;;;;;;;6.10;2.03;;;8.20;99.90;;;;;;5082598;28;20097;-69
2022/04/05 08:35:10;;;;;;;5.55;1.67;;;8.20;99.90;;;;;;5079285;28;20040;-70
2022/04/05 08:37:36;;;;;;;7.30;1.70;;;8.20;99.90;;;;;;5059347;28;20052;-69
2022/04/05 08:40:06;;;;;;;4.63;1.50;;;8.20;99.90;;;;;;5078767;28;20846;-69
2022/04/05 08:42:45;;;;;;;5.53;1.70;;;8.20;99.90;;;;;;5046274;28;20186;-69
2022/04/05 08:45:12;;;;;;;4.43;1.60;;;8.10;99.90;;;;;;5078147;28;20052;-69
2022/04/05 08:47:48;;;;;;;4.40;1.70;;;8.20;99.90;;;;;;5078169;28;20141;-69
2022/04/05 08:50:16;;;;;;;5.00;1.80;;;8.30;99.90;;;;;;5075894;28;20036;-69
2022/04/05 08:52:45;;;;;;;4.20;1.77;;;8.30;99.90;;;;;;5057984;28;20048;-69
2022/04/05 08:55:13;;;;;;;8.65;2.47;;;8.30;99.90;;;;;;5075972;28;20134;-69
2022/04/05 08:57:39;;;;;;;6.38;2.33;;;8.40;99.90;;;;;;5077741;28;20079;-69
2022/04/05 09:00:07;;;;;;;5.50;1.70;;;8.40;99.90;;;;;;5045236;28;20040;-69
2022/04/05 09:02:33;;;;;;;5.07;1.50;;;8.40;99.90;;;;;;5060947;28;20549;-70
2022/04/05 09:04:59;;;;;;;5.60;2.22;;;8.40;99.90;;;;;;5058515;28;20108;-69
2022/04/05 09:07:29;;;;;;;6.43;1.50;;;8.40;99.90;;;;;;5079642;28;20032;-69
2022/04/05 09:10:15;;;;;;;6.70;1.60;;;8.40;99.90;;;;;;5082170;28;20560;-69
2022/04/05 09:12:47;;;;;;;3.15;1.63;;;8.40;99.90;;;;;;5081944;28;20130;-69
2022/04/05 09:15:24;;;;;;;3.05;1.52;;;8.30;99.90;;;;;;5073668;28;20052;-69
2022/04/05 09:17:52;;;;;;;4.50;1.35;;;8.40;99.90;;;;;;5061343;28;20115;-69
2022/04/05 09:20:20;;;;;;;3.63;1.80;;;8.40;99.90;;;;;;5044499;28;20143;-69
2022/04/05 09:22:46;;;;;;;3.60;1.98;;;8.50;99.90;;;;;;5061993;28;20485;-70
2022/04/05 09:25:16;;;;;;;3.15;1.55;;;8.50;99.90;;;;;;5077110;28;20054;-69
2022/04/05 09:27:42;;;;;;;;;;;8.60;99.90;;;;;;5061273;28;20112;-69
2022/04/05 09:30:21;;;;;;;4.05;1.40;;;8.70;99.90;;;;;;5080436;28;19924;-69
2022/04/05 09:32:48;;;;;;;6.13;2.03;;;8.80;99.90;;;;;;5081513;28;20040;-70
2022/04/05 09:35:22;;;;;;;2.78;1.60;;;8.80;99.90;;;;;;5078962;28;20055;-69
2022/04/05 09:37:48;;;;;;;4.25;1.45;;;8.90;99.90;;;;;;5064144;28;20044;-69
2022/04/05 09:40:14;;;;;;;2.72;1.30;;;8.90;99.90;;;;;;5060290;28;20059;-69
2022/04/05 09:43:09;;;;;;;2.95;1.80;;;8.90;99.90;;;;;;5079142;28;20076;-69
2022/04/05 09:45:46;;;;;;;2.35;1.40;;;8.90;99.90;;;;;;5077057;28;20055;-69
2022/04/05 09:48:13;;;;;;;4.55;2.10;;;8.90;99.90;;;;;;5079710;28;20062;-69
2022/04/05 09:51:12;;;;;;;2.90;1.75;;;8.90;99.90;;;;;;5062347;28;20126;-69
2022/04/05 09:53:54;;;;;;;1.85;1.30;;;9.00;99.90;;;;;;5075805;28;20086;-69
2022/04/05 09:56:22;;;;;;;1.38;1.05;;;9.00;99.90;;;;;;5109299;27;20044;-69
2022/04/05 09:59:04;;;;;;;1.92;1.10;;;9.10;99.90;;;;;;5077741;28;20498;-69
2022/04/05 10:01:35;;;;;;;2.42;0.90;;;9.20;99.90;;;;;;5096539;28;20036;-70
2022/04/05 10:04:03;;;;;;;2.47;0.95;;;9.20;99.90;;;;;;5078315;28;20040;-69
2022/04/05 10:06:30;;;;;;;1.67;1.08;;;9.20;99.90;;;;;;5080603;28;20130;-68
2022/04/05 10:09:01;;;;;;;2.20;1.10;;;9.10;99.90;;;;;;5063998;28;20067;-68
2022/04/05 10:11:30;;;;;;;;;;;9.10;99.90;;;;;;5064647;28;20600;-68
2022/04/05 10:13:57;;;;;;;2.20;1.50;;;9.10;99.90;;;;;;5077367;28;19924;-68
2022/04/05 10:16:25;;;;;;;2.63;1.73;;;9.10;99.90;;;;;;5061075;28;20218;-68
2022/04/05 10:18:55;;;;;;;3.50;2.13;;;9.10;99.90;;;;;;5060623;28;20042;-67
2022/04/05 10:21:22;;;;;;;3.20;2.20;;;9.00;99.90;;;;;;5075576;28;20044;-68
2022/04/05 10:23:48;;;;;;;3.42;2.33;;;9.10;99.90;;;;;;5060721;28;20533;-68
2022/04/05 10:26:18;;;;;;;3.10;2.20;;;9.10;99.90;;;;;;5079635;28;20063;-68
2022/04/05 10:28:47;;;;;;;3.70;2.25;;;9.20;99.90;;;;;;5079642;28;20048;-68
2022/04/05 10:31:36;;;;;;;4.65;3.05;;;9.30;99.90;;;;;;5097418;28;20044;-68
2022/04/05 10:34:18;;;;;;;4.93;3.53;;;9.40;99.90;;;;;;5076112;28;20631;-67
2022/04/05 10:37:23;;;;;;;4.35;3.20;;;9.50;99.90;;;;;;5076277;28;20036;-68
2022/04/05 10:39:58;;;;;;;6.60;3.88;;;9.40;99.90;;;;;;5068998;28;20560;-68
2022/04/05 10:42:32;;;;;;;5.40;3.95;;;9.50;99.90;;;;;;5082431;28;20134;-68
2022/04/05 10:45:13;;;;;;;6.13;4.07;;;9.50;99.90;;;;;;5081347;28;20039;-67
2022/04/05 10:48:00;;;;;;;6.95;4.60;;;9.50;99.90;;;;;;5082128;28;20059;-68
2022/04/05 10:50:26;;;;;;;6.55;4.82;;;9.50;99.90;;;;;;5062157;28;20571;-71
2022/04/05 10:53:22;;;;;;;5.80;4.00;;;9.50;99.90;;;;;;5062969;28;20036;-68
2022/04/05 10:56:03;;;;;;;5.82;4.57;;;9.60;99.90;;;;;;5074092;28;20040;-69
2022/04/05 10:58:40;;;;;;;5.85;4.47;;;9.70;99.90;;;;;;5114179;27;20047;-70
2022/04/05 11:01:13;;;;;;;6.07;4.28;;;9.80;99.90;;;;;;5060803;28;20498;-70
2022/04/05 11:03:39;;;;;;;5.18;4.22;;;9.80;99.90;;;;;;5080954;28;20895;-69
2022/04/05 11:06:06;;;;;;;5.63;4.15;;;9.80;99.90;;;;;;5064221;28;20047;-70
2022/04/05 11:08:33;;;;;;;5.72;4.28;;;9.80;99.90;;;;;;5081754;28;20043;-70
2022/04/05 11:11:01;;;;;;;5.43;4.13;;;9.90;99.90;;;;;;5064445;28;20071;-70
2022/04/05 11:13:31;;;;;;;4.47;2.88;;;10.20;99.90;;;;;;5081839;28;20570;-71
2022/04/05 11:15:58;;;;;;;4.20;3.38;;;10.50;99.90;;;;;;5064870;28;20367;-70
2022/04/05 11:18:26;;;;;;;5.00;3.70;;;10.60;99.90;;;;;;5083640;28;20510;-70
2022/04/05 11:20:54;;;;;;;4.32;3.58;;;10.50;99.90;;;;;;5067257;28;20154;-70
2022/04/05 11:23:38;;;;;;;4.65;3.45;;;10.50;99.90;;;;;;5082684;28;20044;-70
2022/04/05 11:26:30;;;;;;;4.25;3.13;;;10.60;99.90;;;;;;5065849;28;20043;-70
2022/04/05 11:28:58;;;;;;;5.82;4.25;;;10.90;99.90;;;;;;5088160;28;20035;-70
2022/04/05 11:31:32;;;;;;;4.00;3.15;;;10.90;99.90;;;;;;5118884;27;20071;-70
2022/04/05 11:33:59;;;;;;;4.53;2.83;;;11.00;99.90;;;;;;5087993;28;20059;-70
2022/04/05 11:36:25;;;;;;;3.90;2.30;;;11.00;99.90;;;;;;5086772;28;20043;-70
2022/04/05 11:39:00;;;;;;;3.38;2.55;;;11.00;99.90;;;;;;5071067;28;20048;-70
2022/04/05 11:41:29;;;;;;;3.50;2.78;;;11.00;99.90;;;;;;5103842;28;20056;-71
2022/04/05 11:43:57;;;;;;;3.45;2.70;;;11.00;99.90;;;;;;5087322;28;20092;-69
2022/04/05 11:46:27;;;;;;;4.80;3.80;;;10.90;99.90;;;;;;5104341;28;20052;-69
2022/04/05 11:48:58;;;;;;;3.83;2.95;;;10.90;99.90;;;;;;5084271;28;20058;-69
2022/04/05 11:51:30;;;;;;;4.43;3.58;;;10.90;99.90;;;;;;5096824;28;20275;-69
2022/04/05 11:54:18;;;;;;;5.05;3.60;;;10.90;99.90;;;;;;5118240;27;20063;-70
2022/04/05 11:56:45;;;;;;;4.75;2.78;;;10.90;99.90;;;;;;5084947;28;20043;-69
2022/04/05 11:59:16;;;;;;;3.83;2.80;;;10.90;99.90;;;;;;5067263;28;20444;-69
2022/04/05 12:01:45;;;;;;;4.95;3.53;;;10.90;99.90;;;;;;5084408;28;20055;-69
2022/04/05 12:04:18;;;;;;;4.70;3.83;;;10.90;99.90;;;;;;5067567;28;20446;-69
2022/04/05 12:06:49;;;;;;;4.68;3.70;;;11.00;99.90;;;;;;5067091;28;20394;-69
2022/04/05 12:09:17;;;;;;;4.95;3.92;;;11.00;99.90;;;;;;5068168;28;20138;-69
2022/04/05 12:11:48;;;;;;;5.93;4.47;;;11.00;99.90;;;;;;5084053;28;20043;-70
2022/04/05 12:14:16;;;;;;;6.43;4.90;;;11.10;99.90;;;;;;5084803;28;20085;-70
2022/04/05 12:16:52;;;;;;;5.82;4.90;;;11.20;99.90;;;;;;5083947;28;20040;-72
2022/04/05 12:19:20;;;;;;;6.97;5.18;;;11.20;99.90;;;;;;5066234;28;20271;-70
2022/04/05 12:21:54;;;;;;;9.13;6.10;;;11.20;99.90;;;;;;5078399;28;20040;-70
2022/04/05 12:24:21;;;;;;;7.93;6.85;;;11.20;99.90;;;;;;5063302;28;20043;-70
2022/04/05 12:26:47;;;;;;;7.22;5.55;;;11.10;99.90;;;;;;5063575;28;20073;-69
2022/04/05 12:29:13;;;;;;;8.40;6.63;;;11.10;99.90;;;;;;5079734;28;20048;-69
2022/04/05 12:31:39;;;;;;;9.02;6.18;;;11.10;99.90;;;;;;5060713;28;20180;-69
2022/04/05 12:34:11;;;;;;;8.73;6.68;;;11.00;99.90;;;;;;5047878;28;20042;-70
2022/04/05 12:36:57;;;;;;;8.60;6.55;;;11.00;99.90;;;;;;5081472;28;20043;-69
2022/04/05 12:39:28;;;;;;;8.85;6.25;;;11.00;99.90;;;;;;5060157;28;20087;-69
2022/04/05 12:41:57;;;;;;;11.25;6.28;;;11.00;99.90;;;;;;5081417;28;20051;-70
2022/04/05 12:44:27;;;;;;;10.18;6.63;;;10.90;99.90;;;;;;5064632;28;20047;-69
2022/04/05 12:46:54;;;;;;;10.13;7.85;;;10.90;99.90;;;;;;5074609;28;20134;-70
2022/04/05 12:49:22;;;;;;;12.48;8.25;;;10.80;99.90;;;;;;5076958;28;20043;-73
2022/04/05 12:51:49;;;;;;;13.48;7.85;;;10.70;99.90;;;;;;5081693;28;20079;-71
2022/04/05 12:54:33;;;;;;;9.70;6.90;;;10.60;99.90;;;;;;5081097;28;20299;-71
2022/04/05 12:57:23;;;;;;;10.63;6.28;;;10.60;99.90;;;;;;5082399;28;20039;-70
2022/04/05 12:59:51;;;;;;;9.30;5.60;;;10.50;99.90;;;;;;5082891;28;20055;-75